createdAt,value
2019-03-30T00:01:19.629Z,102771.78
2019-03-30T00:03:50.969Z,102775.66
2019-03-30T00:06:21.201Z,102772.66
2019-03-30T00:08:53.247Z,102774.41
2019-03-30T00:11:23.477Z,102769.23
2019-03-30T00:13:53.365Z,102764.44
2019-03-30T00:16:23.244Z,102771.38
2019-03-30T00:18:53.143Z,102766.23
2019-03-30T00:21:23.121Z,102765.34
2019-03-30T00:23:53.021Z,102764.04
2019-03-30T00:26:22.936Z,102758.87
2019-03-30T00:28:52.866Z,102753.70
2019-03-30T00:31:22.743Z,102750.69
2019-03-30T00:33:52.644Z,102752.41
2019-03-30T00:36:24.571Z,102746.36
2019-03-30T00:38:54.448Z,102740.30
2019-03-30T00:41:24.371Z,102738.58
2019-03-30T00:43:54.298Z,102734.67
2019-03-30T00:46:24.203Z,102734.70
2019-03-30T00:48:54.077Z,102730.41
2019-03-30T00:51:24.002Z,102724.81
2019-03-30T00:53:53.914Z,102721.33
2019-03-30T00:56:23.816Z,102719.17
2019-03-30T00:58:53.697Z,102718.33
2019-03-30T01:01:23.700Z,102711.04
2019-03-30T01:03:53.614Z,102717.95
2019-03-30T01:06:23.872Z,102713.20
2019-03-30T01:08:53.825Z,102712.80
2019-03-30T01:11:23.829Z,102713.20
2019-03-30T01:13:53.716Z,102710.61
2019-03-30T01:16:23.641Z,102717.98
2019-03-30T01:18:53.532Z,102711.08
2019-03-30T01:21:23.471Z,102714.55
2019-03-30T01:23:53.340Z,102708.95
2019-03-30T01:26:23.256Z,102715.43
2019-03-30T01:28:53.157Z,102711.56
2019-03-30T01:31:23.093Z,102709.40
2019-03-30T01:33:52.998Z,102702.48
2019-03-30T01:36:24.717Z,102703.77
2019-03-30T01:38:54.570Z,102703.32
2019-03-30T01:41:24.568Z,102699.86
2019-03-30T01:43:54.504Z,102697.70
2019-03-30T01:46:24.402Z,102693.82
2019-03-30T01:48:54.273Z,102692.09
2019-03-30T01:51:24.178Z,102691.24
2019-03-30T01:53:54.044Z,102688.20
2019-03-30T01:56:25.418Z,102689.50
2019-03-30T01:58:55.290Z,102684.75
2019-03-30T02:01:25.210Z,102674.83
2019-03-30T02:03:55.447Z,102676.13
2019-03-30T02:06:25.368Z,102673.53
2019-03-30T02:08:55.245Z,102676.97
2019-03-30T02:11:25.499Z,102676.53
2019-03-30T02:13:55.384Z,102677.37
2019-03-30T02:16:25.391Z,102669.19
2019-03-30T02:18:55.301Z,102669.19
2019-03-30T02:21:25.195Z,102664.00
2019-03-30T02:23:55.094Z,102667.45
2019-03-30T02:26:25.371Z,102663.55
2019-03-30T02:28:55.353Z,102662.27
2019-03-30T02:31:25.248Z,102663.98
2019-03-30T02:33:56.958Z,102660.49
2019-03-30T02:36:26.877Z,102650.54
2019-03-30T02:38:57.139Z,102652.68
2019-03-30T02:41:27.354Z,102652.66
2019-03-30T02:43:57.260Z,102650.95
2019-03-30T02:46:27.165Z,102651.38
2019-03-30T02:48:57.063Z,102647.06
2019-03-30T02:51:26.951Z,102650.94
2019-03-30T02:53:56.859Z,102647.02
2019-03-30T02:56:26.755Z,102645.30
2019-03-30T02:59:00.683Z,102644.86
2019-03-30T03:01:30.622Z,102640.56
2019-03-30T03:04:00.546Z,102642.30
2019-03-30T03:06:30.433Z,102643.19
2019-03-30T03:09:00.343Z,102642.77
2019-03-30T03:11:30.319Z,102641.05
2019-03-30T03:14:00.253Z,102635.89
2019-03-30T03:16:30.159Z,102632.88
2019-03-30T03:19:01.080Z,102628.57
2019-03-30T03:21:30.954Z,102630.34
2019-03-30T03:24:00.875Z,102619.12
2019-03-30T03:26:30.832Z,102621.75
2019-03-30T03:29:00.746Z,102623.07
2019-03-30T03:31:30.625Z,102614.05
2019-03-30T03:34:00.614Z,102606.74
2019-03-30T03:36:30.502Z,102609.77
2019-03-30T03:39:00.439Z,102610.63
2019-03-30T03:41:30.642Z,102610.20
2019-03-30T03:44:00.504Z,102604.60
2019-03-30T03:46:30.414Z,102608.94
2019-03-30T03:49:00.390Z,102605.08
2019-03-30T03:51:30.777Z,102603.36
2019-03-30T03:54:01.806Z,102604.23
2019-03-30T03:56:33.549Z,102604.23
2019-03-30T03:59:05.324Z,102604.20
2019-03-30T04:01:38.135Z,102593.84
2019-03-30T04:04:11.171Z,102598.17
2019-03-30T04:06:41.997Z,102596.45
2019-03-30T04:09:13.800Z,102590.41
2019-03-30T04:11:46.440Z,102590.41
2019-03-30T04:14:20.174Z,102593.42
2019-03-30T04:16:50.134Z,102588.69
2019-03-30T04:19:20.052Z,102586.09
2019-03-30T04:21:49.961Z,102586.54
2019-03-30T04:24:19.864Z,102581.78
2019-03-30T04:26:49.776Z,102584.81
2019-03-30T04:29:19.668Z,102577.92
2019-03-30T04:31:50.590Z,102574.88
2019-03-30T04:34:20.531Z,102577.02
2019-03-30T04:36:50.785Z,102578.30
2019-03-30T04:39:20.702Z,102573.98
2019-03-30T04:41:50.577Z,102574.84
2019-03-30T04:44:20.496Z,102569.67
2019-03-30T04:46:50.406Z,102569.67
2019-03-30T04:49:20.720Z,102571.38
2019-03-30T04:51:57.344Z,102567.48
2019-03-30T04:54:22.662Z,102566.22
2019-03-30T04:56:52.921Z,102561.05
2019-03-30T04:59:24.615Z,102562.35
2019-03-30T05:01:54.528Z,102561.03
2019-03-30T05:04:24.418Z,102558.87
2019-03-30T05:06:54.328Z,102557.17
2019-03-30T05:09:24.222Z,102554.58
2019-03-30T05:11:54.100Z,102556.29
2019-03-30T05:14:24.000Z,102554.98
2019-03-30T05:16:55.733Z,102565.36
2019-03-30T05:19:25.624Z,102565.83
2019-03-30T05:21:55.642Z,102574.89
2019-03-30T05:24:25.518Z,102568.86
2019-03-30T05:26:55.436Z,102565.41
2019-03-30T05:29:25.339Z,102562.83
2019-03-30T05:31:55.222Z,102567.58
2019-03-30T05:34:25.141Z,102561.95
2019-03-30T05:36:55.063Z,102563.70
2019-03-30T05:39:24.950Z,102560.69
2019-03-30T05:41:54.919Z,102566.74
2019-03-30T05:44:24.859Z,102567.61
2019-03-30T05:46:54.745Z,102566.78
2019-03-30T05:49:24.667Z,102568.08
2019-03-30T05:51:54.641Z,102573.27
2019-03-30T05:54:24.534Z,102569.41
2019-03-30T05:56:54.513Z,102571.13
2019-03-30T05:59:24.450Z,102572.00
2019-03-30T06:01:54.317Z,102566.82
2019-03-30T06:04:24.517Z,102564.23
2019-03-30T06:06:54.429Z,102567.23
2019-03-30T06:09:24.434Z,102569.83
2019-03-30T06:11:54.350Z,102574.16
2019-03-30T06:14:24.240Z,102573.72
2019-03-30T06:16:54.273Z,102566.84
2019-03-30T06:19:24.199Z,102566.82
2019-03-30T06:21:54.439Z,102565.55
2019-03-30T06:24:24.380Z,102565.53
2019-03-30T06:26:54.279Z,102565.16
2019-03-30T06:29:24.235Z,102572.90
2019-03-30T06:31:54.127Z,102573.77
2019-03-30T06:34:24.020Z,102572.90
2019-03-30T06:36:53.931Z,102575.06
2019-03-30T06:39:23.815Z,102578.08
2019-03-30T06:41:54.816Z,102578.09
2019-03-30T06:44:24.699Z,102576.36
2019-03-30T06:46:54.689Z,102575.49
2019-03-30T06:49:24.608Z,102569.45
2019-03-30T06:51:54.875Z,102571.63
2019-03-30T06:54:25.886Z,102568.59
2019-03-30T06:56:55.779Z,102572.47
2019-03-30T06:59:26.038Z,102570.28
2019-03-30T07:01:56.128Z,102572.89
2019-03-30T07:04:26.435Z,102573.75
2019-03-30T07:06:56.898Z,102581.08
2019-03-30T07:09:29.135Z,102579.78
2019-03-30T07:12:00.502Z,102589.27
2019-03-30T07:14:33.228Z,102589.24
2019-03-30T07:17:05.074Z,102596.56
2019-03-30T07:19:37.548Z,102594.86
2019-03-30T07:22:07.557Z,102595.69
2019-03-30T07:24:37.456Z,102592.66
2019-03-30T07:27:07.850Z,102600.44
2019-03-30T07:29:38.081Z,102597.42
2019-03-30T07:32:08.003Z,102601.72
2019-03-30T07:34:41.568Z,102606.48
2019-03-30T07:37:10.752Z,102608.64
2019-03-30T07:39:41.245Z,102607.75
2019-03-30T07:42:11.525Z,102603.45
2019-03-30T07:44:41.823Z,102608.19
2019-03-30T07:47:11.871Z,102609.05
2019-03-30T07:49:41.906Z,102613.81
2019-03-30T07:52:11.805Z,102615.93
2019-03-30T07:54:41.806Z,102616.80
2019-03-30T07:57:17.153Z,102618.05
2019-03-30T07:59:43.402Z,102618.45
2019-03-30T08:02:13.295Z,102615.88
2019-03-30T08:04:43.188Z,102618.89
2019-03-30T08:07:13.194Z,102618.43
2019-03-30T08:09:43.060Z,102614.08
2019-03-30T08:12:12.970Z,102615.78
2019-03-30T08:14:45.063Z,102620.94
2019-03-30T08:17:14.630Z,102616.59
2019-03-30T08:19:44.916Z,102620.49
2019-03-30T08:22:15.199Z,102626.52
2019-03-30T08:24:45.131Z,102624.77
2019-03-30T08:27:15.010Z,102626.89
2019-03-30T08:29:45.013Z,102625.56
2019-03-30T08:32:14.903Z,102632.04
2019-03-30T08:34:45.090Z,102633.28
2019-03-30T08:37:16.429Z,102639.73
2019-03-30T08:39:46.363Z,102635.81
2019-03-30T08:42:16.298Z,102644.86
2019-03-30T08:44:46.224Z,102643.94
2019-03-30T08:47:16.153Z,102644.77
2019-03-30T08:49:46.162Z,102645.56
2019-03-30T08:52:16.055Z,102640.36
2019-03-30T08:54:46.463Z,102641.58
2019-03-30T08:57:16.326Z,102648.03
2019-03-30T08:59:46.192Z,102648.39
2019-03-30T09:02:16.093Z,102645.72
2019-03-30T09:04:45.968Z,102652.17
2019-03-30T09:07:16.017Z,102646.52
2019-03-30T09:09:45.913Z,102646.91
2019-03-30T09:12:15.803Z,102646.39
2019-03-30T09:14:45.698Z,102645.06
2019-03-30T09:17:15.606Z,102648.47
2019-03-30T09:19:45.538Z,102647.55
2019-03-30T09:22:15.481Z,102648.35
2019-03-30T09:24:46.615Z,102647.89
2019-03-30T09:27:16.662Z,102646.56
2019-03-30T09:29:46.682Z,102651.30
2019-03-30T09:32:16.605Z,102649.12
2019-03-30T09:34:47.717Z,102645.63
2019-03-30T09:37:17.787Z,102646.00
2019-03-30T09:39:48.180Z,102653.73
2019-03-30T09:42:18.192Z,102655.41
2019-03-30T09:44:48.093Z,102653.61
2019-03-30T09:47:17.987Z,102655.67
2019-03-30T09:49:48.263Z,102659.08
2019-03-30T09:52:18.172Z,102656.00
2019-03-30T09:54:48.405Z,102651.16
2019-03-30T09:57:18.292Z,102657.16
2019-03-30T09:59:48.189Z,102653.23
2019-03-30T10:02:20.969Z,102652.68
2019-03-30T10:04:50.893Z,102650.83
2019-03-30T10:07:20.750Z,102654.19
2019-03-30T10:09:50.622Z,102651.90
2019-03-30T10:12:20.519Z,102646.14
2019-03-30T10:14:50.789Z,102640.37
2019-03-30T10:17:20.665Z,102647.22
2019-03-30T10:20:03.701Z,102639.29
2019-03-30T10:22:22.192Z,102640.54
2019-03-30T10:24:52.077Z,102645.23
2019-03-30T10:27:22.022Z,102641.22
2019-03-30T10:29:51.908Z,102637.23
2019-03-30T10:32:21.991Z,102641.48
2019-03-30T10:34:51.896Z,102637.58
2019-03-30T10:37:21.800Z,102630.23
2019-03-30T10:39:51.697Z,102622.38
2019-03-30T10:42:21.582Z,102612.83
2019-03-30T10:44:51.583Z,102605.48
2019-03-30T10:47:21.525Z,102606.79
2019-03-30T10:49:51.765Z,102600.28
2019-03-30T10:52:21.705Z,102601.50
2019-03-30T10:54:53.004Z,102591.55
2019-03-30T10:57:23.283Z,102593.60
2019-03-30T10:59:53.183Z,102588.72
2019-03-30T11:02:23.090Z,102595.19
2019-03-30T11:04:54.103Z,102588.53
2019-03-30T11:07:24.354Z,102587.06
2019-03-30T11:09:54.366Z,102582.94
2019-03-30T11:12:24.284Z,102575.22
2019-03-30T11:14:54.525Z,102566.14
2019-03-30T11:17:27.437Z,102566.14
2019-03-30T11:19:57.393Z,102570.44
2019-03-30T11:22:27.291Z,102564.55
2019-03-30T11:25:07.540Z,102562.47
2019-03-30T11:27:28.794Z,102567.75
2019-03-30T11:29:58.710Z,102564.09
2019-03-30T11:32:28.624Z,102547.06
2019-03-30T11:34:58.514Z,102540.89
2019-03-30T11:37:28.431Z,102539.47
2019-03-30T11:39:58.328Z,102539.47
2019-03-30T11:42:28.272Z,102532.30
2019-03-30T11:44:58.153Z,102532.97
2019-03-30T11:47:28.067Z,102526.19
2019-03-30T11:49:58.015Z,102523.41
2019-03-30T11:52:27.952Z,102510.87
2019-03-30T11:54:59.917Z,102505.28
2019-03-30T11:57:30.139Z,102505.28
2019-03-30T12:00:00.147Z,102495.47
2019-03-30T12:02:30.230Z,102489.28
2019-03-30T12:05:00.378Z,102489.28
2019-03-30T12:07:30.330Z,102498.94
2019-03-30T12:10:00.400Z,102480.45
2019-03-30T12:12:30.415Z,102489.48
2019-03-30T12:15:00.497Z,102487.68
2019-03-30T12:17:33.252Z,102473.51
2019-03-30T12:20:03.162Z,102479.16
2019-03-30T12:22:33.061Z,102472.13
2019-03-30T12:25:02.983Z,102472.13
2019-03-30T12:27:33.196Z,102475.50
2019-03-30T12:30:03.136Z,102471.57
2019-03-30T12:32:33.056Z,102458.41
2019-03-30T12:35:03.299Z,102461.20
2019-03-30T12:37:33.163Z,102463.30
2019-03-30T12:40:03.177Z,102455.61
2019-03-30T12:42:33.374Z,102452.92
2019-03-30T12:45:03.298Z,102452.92
2019-03-30T12:47:33.548Z,102441.47
2019-03-30T12:50:03.473Z,102434.66
2019-03-30T12:52:33.429Z,102434.66
2019-03-30T12:55:03.308Z,102417.25
2019-03-30T12:57:33.240Z,102417.25
2019-03-30T13:00:03.222Z,102412.84
2019-03-30T13:02:33.427Z,102420.88
2019-03-30T13:05:03.362Z,102411.42
2019-03-30T13:07:33.278Z,102410.13
2019-03-30T13:10:04.956Z,102405.45
2019-03-30T13:12:35.183Z,102400.03
2019-03-30T13:15:05.461Z,102392.17
2019-03-30T13:17:35.408Z,102383.23
2019-03-30T13:20:05.677Z,102383.23
2019-03-30T13:22:35.607Z,102377.75
2019-03-30T13:25:05.662Z,102378.84
2019-03-30T13:27:35.615Z,102377.56
2019-03-30T13:30:06.404Z,102372.27
2019-03-30T13:32:36.732Z,102368.62
2019-03-30T13:35:06.750Z,102366.23
2019-03-30T13:37:36.702Z,102349.63
2019-03-30T13:40:07.575Z,102350.73
2019-03-30T13:42:37.807Z,102346.19
2019-03-30T13:45:08.197Z,102342.48
2019-03-30T13:47:38.111Z,102344.91
2019-03-30T13:50:08.229Z,102348.83
2019-03-30T13:52:38.157Z,102342.41
2019-03-30T13:55:08.839Z,102339.99
2019-03-30T13:57:38.721Z,102348.28
2019-03-30T14:00:09.835Z,102334.25
2019-03-30T14:02:39.717Z,102328.80
2019-03-30T14:05:09.628Z,102326.83
2019-03-30T14:07:39.525Z,102331.67
2019-03-30T14:10:10.131Z,102325.89
2019-03-30T14:12:40.120Z,102319.41
2019-03-30T14:15:10.132Z,102320.89
2019-03-30T14:17:40.043Z,102321.83
2019-03-30T14:20:10.177Z,102326.55
2019-03-30T14:22:40.083Z,102316.74
2019-03-30T14:25:09.995Z,102312.08
2019-03-30T14:27:40.329Z,102309.41
2019-03-30T14:30:11.287Z,102301.37
2019-03-30T14:32:41.242Z,102299.08
2019-03-30T14:35:11.673Z,102302.81
2019-03-30T14:37:41.577Z,102303.09
2019-03-30T14:40:11.995Z,102298.75
2019-03-30T14:42:41.961Z,102294.28
2019-03-30T14:45:12.166Z,102297.59
2019-03-30T14:47:42.129Z,102300.80
2019-03-30T14:50:12.482Z,102301.86
2019-03-30T14:52:42.571Z,102299.28
2019-03-30T14:55:12.631Z,102305.55
2019-03-30T14:57:42.576Z,102299.69
2019-03-30T15:00:12.856Z,102301.12
2019-03-30T15:02:43.870Z,102302.57
2019-03-30T15:05:13.988Z,102292.18
2019-03-30T15:07:44.032Z,102286.34
2019-03-30T15:10:14.356Z,102286.07
2019-03-30T15:12:44.754Z,102287.58
2019-03-30T15:15:15.125Z,102278.38
2019-03-30T15:17:45.123Z,102276.24
2019-03-30T15:20:15.215Z,102273.53
2019-03-30T15:22:45.223Z,102271.18
2019-03-30T15:25:15.713Z,102263.75
2019-03-30T15:27:45.609Z,102267.64
2019-03-30T15:30:16.550Z,102263.59
2019-03-30T15:32:46.454Z,102261.55
2019-03-30T15:35:16.431Z,102260.28
2019-03-30T15:37:46.333Z,102263.04
2019-03-30T15:40:17.138Z,102267.25
2019-03-30T15:42:47.059Z,102263.98
2019-03-30T15:45:17.425Z,102261.22
2019-03-30T15:47:47.409Z,102263.20
2019-03-30T15:50:18.027Z,102260.17
2019-03-30T15:52:49.265Z,102262.80
2019-03-30T15:55:19.171Z,102261.41
2019-03-30T15:57:49.158Z,102261.22
2019-03-30T16:00:19.704Z,102259.05
2019-03-30T16:02:50.085Z,102263.58
2019-03-30T16:05:20.128Z,102262.58
2019-03-30T16:07:51.874Z,102258.86
2019-03-30T16:10:21.798Z,102258.59
2019-03-30T16:12:51.741Z,102258.06
2019-03-30T16:15:21.702Z,102259.50
2019-03-30T16:17:51.626Z,102261.27
2019-03-30T16:20:21.985Z,102267.25
2019-03-30T16:22:51.941Z,102263.63
2019-03-30T16:25:21.886Z,102264.05
2019-03-30T16:27:51.834Z,102269.16
2019-03-30T16:30:21.820Z,102275.73
2019-03-30T16:32:51.714Z,102269.16
2019-03-30T16:35:21.722Z,102269.27
2019-03-30T16:37:51.624Z,102271.04
2019-03-30T16:40:22.005Z,102275.19
2019-03-30T16:42:52.263Z,102277.17
2019-03-30T16:45:22.170Z,102275.73
2019-03-30T16:47:52.083Z,102277.86
2019-03-30T16:50:21.996Z,102277.86
2019-03-30T16:52:58.299Z,102280.12
2019-03-30T16:55:28.227Z,102283.12
2019-03-30T16:57:58.326Z,102286.02
2019-03-30T17:00:33.426Z,102281.36
2019-03-30T17:03:04.375Z,102286.00
2019-03-30T17:05:34.260Z,102275.36
2019-03-30T17:08:04.264Z,102277.34
2019-03-30T17:10:34.140Z,102280.38
2019-03-30T17:13:04.051Z,102284.55
2019-03-30T17:15:33.949Z,102285.46
2019-03-30T17:18:03.937Z,102283.27
2019-03-30T17:20:33.849Z,102291.81
2019-03-30T17:23:04.050Z,102290.11
2019-03-30T17:25:33.960Z,102287.20
2019-03-30T17:28:06.889Z,102292.79
2019-03-30T17:30:36.174Z,102288.41
2019-03-30T17:33:06.293Z,102290.22
2019-03-30T17:35:37.216Z,102304.89
2019-03-30T17:38:07.127Z,102307.20
2019-03-30T17:40:37.074Z,102308.17
2019-03-30T17:43:06.967Z,102319.44
2019-03-30T17:45:36.866Z,102324.55
2019-03-30T17:48:06.917Z,102320.48
2019-03-30T17:50:36.832Z,102333.45
2019-03-30T17:53:06.732Z,102339.78
2019-03-30T17:55:36.690Z,102380.77
2019-03-30T17:58:12.779Z,102355.95
2019-03-30T18:00:38.328Z,102361.95
2019-03-30T18:03:08.211Z,102367.11
2019-03-30T18:05:38.123Z,102374.17
2019-03-30T18:08:08.060Z,102377.70
2019-03-30T18:10:37.947Z,102377.70
2019-03-30T18:13:08.168Z,102373.53
2019-03-30T18:15:38.054Z,102373.53
2019-03-30T18:18:07.974Z,102386.20
2019-03-30T18:20:37.867Z,102386.20
2019-03-30T18:23:07.802Z,102395.11
2019-03-30T18:25:37.704Z,102397.93
2019-03-30T18:28:07.572Z,102395.19
2019-03-30T18:30:39.714Z,102405.77
2019-03-30T18:33:09.988Z,102415.49
2019-03-30T18:35:41.384Z,102411.80
2019-03-30T18:38:13.297Z,102416.48
2019-03-30T18:40:43.226Z,102416.48
2019-03-30T18:43:13.508Z,102420.47
2019-03-30T18:45:43.410Z,102423.27
2019-03-30T18:48:14.548Z,102427.70
2019-03-30T18:50:45.008Z,102424.77
2019-03-30T18:53:17.996Z,102434.46
2019-03-30T18:55:48.366Z,102426.84
2019-03-30T18:58:18.274Z,102439.87
2019-03-30T19:00:48.215Z,102433.42
2019-03-30T19:03:20.081Z,102435.66
2019-03-30T19:05:49.886Z,102441.80
2019-03-30T19:08:19.809Z,102438.82
2019-03-30T19:10:49.784Z,102444.10
2019-03-30T19:13:19.711Z,102447.66
2019-03-30T19:15:49.607Z,102452.49
2019-03-30T19:18:19.549Z,102453.89
2019-03-30T19:20:49.928Z,102460.86
2019-03-30T19:23:20.121Z,102458.87
2019-03-30T19:25:50.072Z,102458.87
2019-03-30T19:28:20.018Z,102461.53
2019-03-30T19:30:49.985Z,102468.59
2019-03-30T19:33:19.991Z,102473.86
2019-03-30T19:35:50.312Z,102470.93
2019-03-30T19:38:20.230Z,102474.47
2019-03-30T19:40:50.110Z,102471.97
2019-03-30T19:43:20.025Z,102473.77
2019-03-30T19:45:49.944Z,102476.44
2019-03-30T19:48:19.837Z,102479.48
2019-03-30T19:50:49.754Z,102487.34
2019-03-30T19:53:20.862Z,102486.10
2019-03-30T19:55:51.153Z,102487.02
2019-03-30T19:58:21.480Z,102490.08
2019-03-30T20:00:51.402Z,102492.30
2019-03-30T20:03:21.295Z,102482.85
2019-03-30T20:05:51.193Z,102485.55
2019-03-30T20:08:21.376Z,102486.47
2019-03-30T20:10:57.506Z,102489.55
2019-03-30T20:13:27.408Z,102491.35
2019-03-30T20:15:57.287Z,102491.41
2019-03-30T20:18:27.177Z,102494.48
2019-03-30T20:20:57.074Z,102491.06
2019-03-30T20:23:27.019Z,102493.72
2019-03-30T20:25:56.894Z,102493.81
2019-03-30T20:28:26.795Z,102497.33
2019-03-30T20:30:56.808Z,102500.02
2019-03-30T20:33:26.694Z,102503.11
2019-03-30T20:35:56.587Z,102503.59
2019-03-30T20:38:26.472Z,102499.34
2019-03-30T20:40:56.373Z,102494.67
2019-03-30T20:43:26.334Z,102491.77
2019-03-30T20:45:56.416Z,102494.37
2019-03-30T20:48:26.330Z,102499.62
2019-03-30T20:50:56.236Z,102507.43
2019-03-30T20:53:26.170Z,102509.25
2019-03-30T20:55:56.427Z,102506.26
2019-03-30T20:58:26.399Z,102511.50
2019-03-30T21:00:56.351Z,102513.71
2019-03-30T21:03:27.747Z,102514.19
2019-03-30T21:05:57.651Z,102516.39
2019-03-30T21:08:27.531Z,102516.87
2019-03-30T21:10:57.491Z,102516.95
2019-03-30T21:13:27.410Z,102519.59
2019-03-30T21:15:57.300Z,102520.53
2019-03-30T21:18:27.207Z,102514.55
2019-03-30T21:20:57.413Z,102515.49
2019-03-30T21:23:27.330Z,102519.43
2019-03-30T21:25:57.213Z,102525.50
2019-03-30T21:28:27.082Z,102526.44
2019-03-30T21:30:57.035Z,102532.50
2019-03-30T21:33:26.943Z,102535.57
2019-03-30T21:35:56.815Z,102533.88
2019-03-30T21:38:26.733Z,102535.20
2019-03-30T21:40:56.667Z,102540.44
2019-03-30T21:43:26.576Z,102539.14
2019-03-30T21:45:56.459Z,102532.21
2019-03-30T21:48:26.369Z,102533.52
2019-03-30T21:50:56.257Z,102526.62
2019-03-30T21:53:26.158Z,102526.69
2019-03-30T21:55:56.075Z,102527.55
2019-03-30T21:58:26.003Z,102528.05
2019-03-30T22:01:00.020Z,102521.59
2019-03-30T22:03:30.155Z,102527.26
2019-03-30T22:06:00.451Z,102522.96
2019-03-30T22:08:30.690Z,102516.06
2019-03-30T22:11:00.578Z,102520.03
2019-03-30T22:13:30.458Z,102523.52
2019-03-30T22:16:01.629Z,102526.98
2019-03-30T22:18:31.524Z,102529.16
2019-03-30T22:21:01.688Z,102533.05
2019-03-30T22:23:31.589Z,102534.34
2019-03-30T22:26:01.446Z,102533.52
2019-03-30T22:28:31.345Z,102533.55
2019-03-30T22:31:01.242Z,102537.44
2019-03-30T22:33:31.492Z,102542.66
2019-03-30T22:36:01.382Z,102545.28
2019-03-30T22:38:31.254Z,102536.23
2019-03-30T22:41:01.175Z,102532.80
2019-03-30T22:43:31.078Z,102536.69
2019-03-30T22:46:00.998Z,102540.19
2019-03-30T22:48:30.875Z,102544.10
2019-03-30T22:51:00.750Z,102542.86
2019-03-30T22:53:30.752Z,102541.59
2019-03-30T22:56:00.993Z,102552.87
2019-03-30T22:58:30.890Z,102552.47
2019-03-30T23:01:08.929Z,102552.52
2019-03-30T23:03:39.109Z,102556.02
2019-03-30T23:06:09.136Z,102557.34
2019-03-30T23:08:39.127Z,102557.78
2019-03-30T23:11:09.011Z,102560.80
2019-03-30T23:13:44.839Z,102554.34
2019-03-30T23:16:14.666Z,102556.91
2019-03-30T23:18:45.404Z,102553.45
2019-03-30T23:21:15.583Z,102559.51
2019-03-30T23:23:45.608Z,102550.89
2019-03-30T23:26:15.589Z,102553.48
2019-03-30T23:28:45.956Z,102552.64
2019-03-30T23:31:16.159Z,102548.75
2019-03-30T23:33:46.080Z,102556.98
2019-03-30T23:36:15.985Z,102546.64
2019-03-30T23:38:45.890Z,102554.45
2019-03-30T23:41:15.801Z,102556.16
2019-03-30T23:43:45.675Z,102551.46
2019-03-30T23:46:15.566Z,102554.05
2019-03-30T23:48:45.876Z,102549.78
2019-03-30T23:51:15.752Z,102547.20
2019-03-30T23:53:45.620Z,102552.39
2019-03-30T23:56:26.085Z,102548.06
2019-03-30T23:58:56.048Z,102546.34
